Aeroporto :
LOGIN :

Iscrizione | Disclaimer

   EN    FR    IT 

 










Sommario :    VFR   VFR Marginale   IFR   IFR Intensivo   IFR Molto Intensivo
Visibilità : 
Base nubi : 
>= 8 km
>= 3000ft
5 / 8 km
1000 / 3000 ft
1500m / 5 km
500 / 1000 ft
800 / 1500m
200 / 500 ft
< 800m
< 200 ft
Simboli :   Temporali  Nebbia  Neve Forte  Precipitazioni Forti  Vento > 20 kt
SIGMETs :   Varie  Temporali  Ghiacco  Turbolenza  Onda orograficha  Ceneri Vulcaniche






- Altitudine del aeroporto : 56 ft
- Codice IATA : ILY


EGPI - Islay

ULTIMO METAR :
  • 051750Z AUTO 24030KT 1700 BR OVC005/// 12/11 Q0995 RERA

METARs OBSOLETI :
  • 051720Z 24030KT 3200 -RA BR BKN007 12/11 Q0995
  • 051650Z 23026KT 3500 -RA BR SCT003 BKN010 12/12 Q0994
  • 051620Z 23027KT 200V260 3000 -RA BR SCT005 BKN013 12/12 Q0995
  • 051550Z 22019KT 190V250 1500 RADZ BR BKN003 BKN010 12/11 Q0995
  • 051520Z 22020KT 2000 RADZ BR SCT004 SCT010 11/11 Q0995

TAF TAF EGPI
Valido dal 05 a 15 ore il 05 a 19 ore UTC


051400Z 0515/0519 20020G30KT 9999 SCT012 BKN018
TEMPO 0515/0519 23030G45KT 6000 RA BKN012
PROB40
TEMPO 0515/0519 4000 RADZ +RA BKN004
BECMG 0516/0519 25025G35KT



MetMap, La meteo Aeronautica in un colpo d'occhio ! - Copyright ORBIFLY Dicembre 2007 - Disclaimer

ORBIFLY MET'MAP TEAM :

Programmazione e sviluppo : Alexandra Zaïnal
Concezione : Baudouin d'Aumeries
Aiuto per la programmazione : Marc-Olivier Méhu
Supporto tecnico e logistico : Manuel Goepfert
Aiuto per la traduzione : Arnaldo La Scala

Contatto : metmap@orbifly.com




FONTI E CREDITI :

   NOAA